Time;durP1;ratioP1;P1;durP2;ratioP2;P2;SDS_P1;SDS_P2;PMS_P1;PMS_P2;Temp;Humidity;BMP_temperature;BMP_pressure;BME280_temperature;BME280_humidity;BME280_pressure;Samples;Min_cycle;Max_cycle;Signal;HPM_P1;HPM_P2
2021/07/16 00:00:29;;;;;;;13.70;3.13;;;22.00;86.80;;;;;;4209937;28;20513;-52
2021/07/16 00:02:52;;;;;;;0.52;0.52;;;22.00;86.80;;;;;;4210010;28;20131;-49
2021/07/16 00:05:15;;;;;;;0.10;0.10;;;22.00;86.80;;;;;;4205231;28;20495;-53
2021/07/16 00:07:39;;;;;;;0.03;0.03;;;22.00;86.80;;;;;;4210333;28;20142;-53
2021/07/16 00:10:01;;;;;;;0.10;0.10;;;22.00;86.90;;;;;;4209851;28;20139;-51
2021/07/16 00:12:23;;;;;;;0.10;0.10;;;22.00;86.80;;;;;;4209392;28;20055;-50
2021/07/16 00:14:45;;;;;;;0.10;0.10;;;22.00;86.80;;;;;;4208626;28;20051;-50
2021/07/16 00:17:07;;;;;;;0.10;0.10;;;22.00;86.90;;;;;;4209417;28;20148;-51
2021/07/16 00:19:29;;;;;;;1.08;0.63;;;22.00;86.90;;;;;;4209927;28;20060;-51
2021/07/16 00:21:51;;;;;;;0.03;0.03;;;22.00;86.90;;;;;;4208365;28;20494;-48
2021/07/16 00:24:15;;;;;;;0.52;0.52;;;22.00;86.80;;;;;;4195733;28;20053;-48
2021/07/16 00:26:37;;;;;;;0.00;0.00;;;22.00;86.90;;;;;;4205148;27;20071;-49
2021/07/16 00:29:00;;;;;;;0.10;0.10;;;22.00;86.80;;;;;;4191414;27;20048;-47
2021/07/16 00:31:22;;;;;;;0.03;0.03;;;22.00;86.80;;;;;;4192666;27;20055;-49
2021/07/16 00:33:45;;;;;;;0.57;0.57;;;22.00;86.80;;;;;;4200107;28;20418;-52
2021/07/16 00:36:07;;;;;;;1.10;0.43;;;22.00;86.80;;;;;;4209523;28;20059;-49
2021/07/16 00:38:29;;;;;;;0.20;0.20;;;22.00;86.80;;;;;;4209429;28;20504;-50
2021/07/16 00:40:52;;;;;;;0.32;0.15;;;21.90;86.70;;;;;;4198764;28;20033;-51
2021/07/16 00:43:14;;;;;;;0.00;0.00;;;21.90;86.70;;;;;;4208705;28;20117;-53
2021/07/16 00:45:36;;;;;;;0.28;0.28;;;21.90;86.70;;;;;;4208201;28;20056;-49
2021/07/16 00:47:59;;;;;;;0.30;0.30;;;22.00;86.70;;;;;;4208688;28;20044;-50
2021/07/16 00:50:24;;;;;;;0.20;0.20;;;21.90;86.60;;;;;;4207728;28;20105;-52
2021/07/16 00:52:47;;;;;;;0.00;0.00;;;21.90;87.40;;;;;;4208281;28;20082;-52
2021/07/16 00:55:10;;;;;;;0.68;0.32;;;21.90;86.50;;;;;;4208885;28;20462;-50
2021/07/16 00:57:34;;;;;;;0.05;0.05;;;21.90;86.70;;;;;;4192846;28;20048;-48
2021/07/16 00:59:57;;;;;;;0.00;0.00;;;21.90;86.60;;;;;;4209086;28;20052;-50
2021/07/16 01:02:19;;;;;;;0.00;0.00;;;21.90;86.60;;;;;;4191644;28;20562;-51
2021/07/16 01:04:41;;;;;;;0.00;0.00;;;21.90;86.70;;;;;;4203568;28;20098;-52
2021/07/16 01:07:04;;;;;;;0.00;0.00;;;21.90;86.70;;;;;;4191867;28;20058;-49
2021/07/16 01:09:26;;;;;;;0.50;0.50;;;21.90;86.70;;;;;;4191834;28;20059;-47
2021/07/16 01:11:49;;;;;;;0.25;0.17;;;21.90;86.70;;;;;;4192203;28;20053;-50
2021/07/16 01:14:13;;;;;;;0.00;0.00;;;21.90;86.70;;;;;;4207324;28;20059;-48
2021/07/16 01:16:35;;;;;;;0.03;0.03;;;21.90;86.70;;;;;;4208635;28;20048;-51
2021/07/16 01:18:58;;;;;;;0.00;0.00;;;21.90;86.80;;;;;;4208926;28;20068;-47
2021/07/16 01:21:22;;;;;;;1.65;1.17;;;21.90;86.80;;;;;;4208283;28;20048;-50
2021/07/16 01:23:45;;;;;;;0.80;0.65;;;21.90;87.20;;;;;;4193655;28;20057;-51
2021/07/16 01:26:07;;;;;;;0.00;0.00;;;21.90;87.20;;;;;;4191581;28;20082;-50
2021/07/16 01:28:29;;;;;;;0.00;0.00;;;21.90;88.20;;;;;;4198851;28;20230;-49
2021/07/16 01:30:53;;;;;;;0.32;0.30;;;21.90;87.30;;;;;;4197685;28;20044;-51
2021/07/16 01:33:17;;;;;;;0.32;0.32;;;21.90;87.30;;;;;;4192007;28;20418;-48
2021/07/16 01:35:39;;;;;;;0.00;0.00;;;21.90;87.30;;;;;;4208540;27;20052;-50
2021/07/16 01:38:02;;;;;;;0.00;0.00;;;21.90;87.40;;;;;;4208564;27;20232;-52
2021/07/16 01:40:27;;;;;;;0.55;0.38;;;21.90;87.30;;;;;;4208409;27;20062;-48
2021/07/16 01:42:50;;;;;;;0.25;0.25;;;21.90;88.20;;;;;;4180945;28;20111;-46
2021/07/16 01:45:16;;;;;;;0.30;0.30;;;21.90;87.30;;;;;;4191882;28;20490;-51
2021/07/16 01:47:40;;;;;;;0.57;0.57;;;21.90;87.30;;;;;;4205829;28;21021;-47
2021/07/16 01:50:03;;;;;;;0.00;0.00;;;21.90;87.30;;;;;;4191070;28;20048;-49
2021/07/16 01:52:25;;;;;;;0.00;0.00;;;21.90;87.30;;;;;;4190251;28;20044;-52
2021/07/16 01:54:47;;;;;;;0.22;0.22;;;21.90;87.30;;;;;;4207012;28;20093;-52
2021/07/16 01:57:10;;;;;;;0.08;0.08;;;21.90;87.30;;;;;;4208093;28;20414;-51
2021/07/16 01:59:33;;;;;;;0.00;0.00;;;21.90;87.30;;;;;;4207104;28;20499;-52
2021/07/16 02:01:55;;;;;;;0.03;0.03;;;21.90;87.30;;;;;;4208369;28;20044;-52
2021/07/16 02:04:18;;;;;;;0.25;0.25;;;21.90;87.30;;;;;;4208341;28;20556;-52
2021/07/16 02:06:41;;;;;;;1.13;0.63;;;21.90;87.20;;;;;;4208323;28;20058;-51
2021/07/16 02:09:05;;;;;;;0.10;0.10;;;21.90;87.20;;;;;;4208019;28;20055;-51
2021/07/16 02:11:28;;;;;;;0.00;0.00;;;21.90;87.20;;;;;;4191510;28;20052;-49
2021/07/16 02:13:52;;;;;;;0.17;0.17;;;21.90;87.10;;;;;;4191176;28;20049;-53
2021/07/16 02:16:14;;;;;;;0.22;0.22;;;21.90;87.00;;;;;;4184574;28;20143;-51
2021/07/16 02:18:36;;;;;;;0.15;0.15;;;21.90;87.00;;;;;;4191354;28;20450;-50
2021/07/16 02:20:58;;;;;;;0.10;0.10;;;21.90;86.90;;;;;;4205292;28;20050;-46
2021/07/16 02:23:22;;;;;;;0.10;0.10;;;21.90;86.90;;;;;;4192379;28;20474;-51
2021/07/16 02:25:45;;;;;;;1.25;0.75;;;21.90;86.90;;;;;;4191656;28;20139;-52
2021/07/16 02:28:09;;;;;;;0.20;0.20;;;21.90;86.80;;;;;;4207303;28;20052;-48
2021/07/16 02:30:32;;;;;;;0.00;0.00;;;21.90;86.80;;;;;;4207311;28;20134;-52
2021/07/16 02:32:55;;;;;;;0.00;0.00;;;21.90;86.80;;;;;;4191397;28;20059;-49
2021/07/16 02:35:18;;;;;;;0.00;0.00;;;21.90;86.80;;;;;;4191034;28;20520;-47
2021/07/16 02:37:40;;;;;;;0.30;0.30;;;21.90;86.80;;;;;;4191178;28;20056;-46
2021/07/16 02:40:04;;;;;;;0.05;0.05;;;21.90;86.80;;;;;;4191452;28;20040;-48
2021/07/16 02:42:26;;;;;;;0.30;0.30;;;21.90;86.80;;;;;;4190972;28;20048;-48
2021/07/16 02:44:48;;;;;;;0.10;0.10;;;21.90;86.80;;;;;;4205103;28;20055;-50
2021/07/16 02:47:11;;;;;;;0.10;0.10;;;21.90;86.80;;;;;;4207857;28;20056;-49
2021/07/16 02:49:34;;;;;;;0.00;0.00;;;21.90;86.80;;;;;;4205605;28;20050;-46
2021/07/16 02:51:56;;;;;;;0.38;0.38;;;21.90;86.80;;;;;;4191140;28;20063;-47
2021/07/16 02:54:18;;;;;;;0.20;0.20;;;21.90;86.70;;;;;;4190931;28;20964;-52
2021/07/16 02:56:41;;;;;;;0.00;0.00;;;21.90;86.70;;;;;;4207565;28;20055;-51
2021/07/16 02:59:02;;;;;;;0.10;0.10;;;21.90;86.60;;;;;;4195848;28;20101;-53
2021/07/16 03:01:24;;;;;;;0.00;0.00;;;21.90;86.70;;;;;;4206235;28;20139;-48
2021/07/16 03:03:48;;;;;;;3.72;1.00;;;21.90;86.70;;;;;;4190911;28;20099;-47
2021/07/16 03:06:10;;;;;;;0.45;0.45;;;21.90;86.70;;;;;;4190617;28;20469;-52
2021/07/16 03:08:32;;;;;;;0.00;0.00;;;21.80;86.70;;;;;;4191064;28;20067;-50
2021/07/16 03:10:55;;;;;;;0.10;0.10;;;21.80;86.70;;;;;;4193807;28;20044;-47
2021/07/16 03:13:19;;;;;;;10.13;1.30;;;21.80;86.70;;;;;;4193991;28;20479;-50
2021/07/16 03:15:42;;;;;;;0.00;0.00;;;21.80;86.70;;;;;;4194115;28;20056;-50
2021/07/16 03:18:05;;;;;;;0.00;0.00;;;21.80;86.70;;;;;;4193789;28;20414;-49
2021/07/16 03:20:30;;;;;;;0.00;0.00;;;21.80;86.80;;;;;;4194103;28;20061;-51
2021/07/16 03:22:53;;;;;;;0.00;0.00;;;21.80;86.80;;;;;;4177635;28;20072;-48
2021/07/16 03:25:17;;;;;;;0.45;0.45;;;21.80;86.70;;;;;;4188342;28;20459;-49
2021/07/16 03:27:39;;;;;;;0.28;0.28;;;21.80;86.80;;;;;;4194010;28;20048;-49
2021/07/16 03:30:02;;;;;;;2.05;1.10;;;21.80;86.60;;;;;;4209468;28;20452;-52
2021/07/16 03:32:24;;;;;;;0.00;0.00;;;21.80;86.70;;;;;;4210305;28;20044;-48
2021/07/16 03:34:45;;;;;;;1.45;1.00;;;21.80;86.60;;;;;;4210640;28;20109;-47
2021/07/16 03:37:09;;;;;;;0.10;0.10;;;21.80;86.80;;;;;;4209230;28;20040;-52
2021/07/16 03:39:31;;;;;;;0.00;0.00;;;21.80;86.80;;;;;;4209680;28;20058;-51
2021/07/16 03:41:52;;;;;;;0.08;0.08;;;21.80;86.80;;;;;;4210416;28;20050;-52
2021/07/16 03:44:15;;;;;;;0.00;0.00;;;21.80;86.80;;;;;;4209292;27;20520;-50
2021/07/16 03:46:58;;;;;;;0.20;0.20;;;21.80;87.70;;;;;;4209658;28;20105;-48
2021/07/16 03:49:20;;;;;;;0.17;0.17;;;21.80;86.80;;;;;;4196278;28;20052;-49
2021/07/16 03:51:42;;;;;;;1.80;0.82;;;21.80;86.80;;;;;;4193685;28;20044;-49
2021/07/16 03:54:06;;;;;;;0.00;0.00;;;21.70;86.80;;;;;;4193533;28;20052;-50
2021/07/16 03:56:28;;;;;;;0.00;0.00;;;21.80;86.90;;;;;;4210097;28;20047;-47
2021/07/16 03:58:50;;;;;;;0.10;0.10;;;21.80;86.80;;;;;;4193393;28;20118;-50
2021/07/16 04:01:13;;;;;;;0.00;0.00;;;21.80;86.90;;;;;;4199597;28;20422;-48
2021/07/16 04:03:35;;;;;;;0.00;0.00;;;21.70;86.80;;;;;;4210340;28;20048;-51
2021/07/16 04:05:58;;;;;;;0.00;0.00;;;21.80;86.90;;;;;;4209698;28;20055;-49
2021/07/16 04:08:20;;;;;;;0.10;0.10;;;21.70;86.80;;;;;;4203736;28;20091;-47
2021/07/16 04:10:43;;;;;;;0.00;0.00;;;21.80;87.80;;;;;;4192695;28;20120;-48
2021/07/16 04:13:08;;;;;;;0.00;0.00;;;21.70;87.00;;;;;;4178720;28;20127;-53
2021/07/16 04:15:30;;;;;;;0.05;0.05;;;21.70;86.90;;;;;;4193630;28;20044;-49
2021/07/16 04:17:53;;;;;;;0.65;0.65;;;21.70;86.80;;;;;;4208727;28;20086;-47
2021/07/16 04:20:15;;;;;;;0.25;0.25;;;21.70;86.90;;;;;;4209116;28;20059;-47
2021/07/16 04:22:39;;;;;;;0.52;0.52;;;21.70;86.90;;;;;;4209251;28;20471;-52
2021/07/16 04:25:01;;;;;;;0.00;0.00;;;21.70;86.90;;;;;;4207876;28;20130;-46
2021/07/16 04:27:24;;;;;;;0.30;0.30;;;21.70;87.00;;;;;;4208304;28;20058;-48
2021/07/16 04:29:46;;;;;;;0.00;0.00;;;21.70;86.90;;;;;;4192693;28;20548;-50
2021/07/16 04:32:10;;;;;;;0.00;0.00;;;21.70;87.10;;;;;;4208836;28;20044;-46
2021/07/16 04:34:33;;;;;;;0.08;0.08;;;21.70;87.00;;;;;;4209246;28;20059;-51
2021/07/16 04:36:55;;;;;;;0.55;0.40;;;21.70;87.00;;;;;;4209408;28;20044;-50
2021/07/16 04:39:18;;;;;;;0.00;0.00;;;21.70;87.00;;;;;;4188375;28;20075;-49
2021/07/16 04:41:40;;;;;;;0.00;0.00;;;21.70;86.90;;;;;;4192575;28;20596;-51
2021/07/16 04:44:03;;;;;;;0.30;0.30;;;21.70;87.00;;;;;;4205593;28;20048;-48
2021/07/16 04:46:25;;;;;;;0.08;0.08;;;21.70;87.00;;;;;;4209171;28;20139;-54
2021/07/16 04:48:47;;;;;;;0.13;0.13;;;21.70;87.00;;;;;;4208634;28;20512;-47
2021/07/16 04:51:10;;;;;;;0.10;0.10;;;21.70;87.10;;;;;;4207730;28;20052;-49
2021/07/16 04:53:32;;;;;;;0.20;0.20;;;21.70;87.10;;;;;;4209203;28;21571;-52
2021/07/16 04:55:54;;;;;;;0.63;0.63;;;21.70;87.10;;;;;;4209522;28;20492;-49
2021/07/16 04:58:16;;;;;;;0.00;0.00;;;21.70;87.00;;;;;;4193894;28;20056;-52
2021/07/16 05:00:40;;;;;;;0.03;0.03;;;21.70;87.10;;;;;;4207631;28;20047;-51
2021/07/16 05:03:02;;;;;;;0.00;0.00;;;21.70;87.00;;;;;;4207707;28;20044;-51
2021/07/16 05:05:24;;;;;;;0.22;0.22;;;21.70;87.00;;;;;;4208137;28;20040;-53
2021/07/16 05:07:46;;;;;;;0.10;0.10;;;21.70;87.10;;;;;;4208686;28;20633;-51
2021/07/16 05:10:09;;;;;;;0.85;0.73;;;21.70;87.30;;;;;;4208644;28;20090;-52
2021/07/16 05:12:31;;;;;;;0.00;0.00;;;21.70;87.50;;;;;;4197894;28;20054;-48
2021/07/16 05:14:54;;;;;;;0.55;0.45;;;21.70;87.50;;;;;;4208427;28;20413;-47
2021/07/16 05:17:17;;;;;;;0.00;0.00;;;21.70;87.30;;;;;;4207805;28;20052;-47
2021/07/16 05:19:39;;;;;;;1.13;1.10;;;21.70;87.60;;;;;;4208441;28;20055;-52
2021/07/16 05:22:01;;;;;;;0.30;0.30;;;21.70;87.70;;;;;;4207227;28;20089;-49
2021/07/16 05:24:23;;;;;;;1.45;0.98;;;21.70;87.50;;;;;;4208907;28;20547;-48
2021/07/16 05:26:45;;;;;;;0.57;0.28;;;21.80;87.40;;;;;;4209201;28;20056;-48
2021/07/16 05:29:07;;;;;;;0.10;0.10;;;21.80;87.30;;;;;;4192070;28;20410;-50
2021/07/16 05:31:30;;;;;;;1.30;1.25;;;21.80;87.30;;;;;;4195460;28;20058;-48
2021/07/16 05:33:53;;;;;;;0.00;0.00;;;21.70;87.10;;;;;;4207083;28;20056;-50
2021/07/16 05:36:15;;;;;;;0.00;0.00;;;21.70;87.10;;;;;;4208117;28;20558;-48
2021/07/16 05:38:38;;;;;;;0.00;0.00;;;21.70;87.10;;;;;;4208387;28;20139;-48
2021/07/16 05:41:01;;;;;;;0.00;0.00;;;21.70;87.10;;;;;;4191434;28;20735;-50
2021/07/16 05:43:23;;;;;;;0.08;0.08;;;21.70;87.00;;;;;;4192688;28;20439;-52
2021/07/16 05:45:45;;;;;;;0.30;0.30;;;21.70;87.00;;;;;;4207981;28;20641;-52
2021/07/16 05:48:10;;;;;;;0.00;0.00;;;21.70;87.00;;;;;;4208276;27;20059;-50
2021/07/16 05:50:34;;;;;;;0.00;0.00;;;21.70;87.00;;;;;;4208373;28;20063;-53
2021/07/16 05:52:56;;;;;;;0.00;0.00;;;21.70;86.90;;;;;;4206399;28;20422;-51
2021/07/16 05:55:18;;;;;;;1.65;1.30;;;21.70;86.80;;;;;;4207426;28;20476;-50
2021/07/16 05:57:40;;;;;;;0.00;0.00;;;21.70;87.60;;;;;;4205582;28;20036;-52
2021/07/16 06:00:02;;;;;;;0.30;0.30;;;21.70;86.80;;;;;;4208192;28;20075;-51
2021/07/16 06:02:32;;;;;;;0.00;0.00;;;21.70;86.80;;;;;;4208053;28;20055;-49
2021/07/16 06:04:55;;;;;;;0.00;0.00;;;21.70;86.70;;;;;;4191672;28;20051;-51
2021/07/16 06:07:18;;;;;;;1.55;0.95;;;21.70;86.70;;;;;;4191458;28;20171;-51
2021/07/16 06:09:40;;;;;;;0.00;0.00;;;21.70;86.60;;;;;;4191324;28;20048;-49
2021/07/16 06:12:03;;;;;;;0.00;0.00;;;21.70;86.60;;;;;;4206567;27;20048;-49
2021/07/16 06:14:25;;;;;;;0.00;0.00;;;21.70;86.60;;;;;;4208184;27;20144;-53
2021/07/16 06:16:49;;;;;;;0.00;0.00;;;21.70;86.50;;;;;;4207946;28;20044;-49
2021/07/16 06:19:11;;;;;;;0.00;0.00;;;21.70;86.50;;;;;;4190607;28;20072;-49
2021/07/16 06:21:35;;;;;;;0.00;0.00;;;21.70;86.40;;;;;;4189044;28;20068;-51
2021/07/16 06:23:59;;;;;;;1.55;1.13;;;21.70;86.40;;;;;;4190750;28;20048;-49
2021/07/16 06:26:21;;;;;;;0.00;0.00;;;21.70;86.40;;;;;;4191161;28;20118;-51
2021/07/16 06:28:43;;;;;;;0.68;0.68;;;21.70;87.20;;;;;;4190950;28;20572;-53
2021/07/16 06:31:05;;;;;;;0.55;0.40;;;21.70;86.40;;;;;;4190039;28;20044;-52
2021/07/16 06:33:28;;;;;;;0.38;0.38;;;21.70;86.30;;;;;;4187605;28;20098;-50
2021/07/16 06:35:50;;;;;;;0.00;0.00;;;21.70;86.30;;;;;;4190574;28;20487;-49
2021/07/16 06:38:12;;;;;;;0.10;0.10;;;21.70;86.30;;;;;;4190404;28;20139;-47
2021/07/16 06:40:36;;;;;;;0.00;0.00;;;21.70;86.50;;;;;;4189534;28;20052;-50
2021/07/16 06:42:58;;;;;;;0.05;0.05;;;21.70;86.50;;;;;;4190422;28;20076;-49
2021/07/16 06:45:20;;;;;;;0.22;0.22;;;21.70;86.50;;;;;;4206807;28;20040;-48
2021/07/16 06:47:42;;;;;;;0.00;0.00;;;21.70;86.50;;;;;;4207519;28;20083;-46
2021/07/16 06:50:05;;;;;;;3.90;0.65;;;21.70;86.50;;;;;;4205435;28;20067;-52
2021/07/16 06:52:29;;;;;;;0.05;0.05;;;21.70;86.50;;;;;;4207062;28;20048;-47
2021/07/16 06:54:51;;;;;;;0.00;0.00;;;21.70;86.40;;;;;;4204239;28;20056;-50
2021/07/16 06:57:15;;;;;;;0.00;0.00;;;21.70;86.40;;;;;;4207297;28;20059;-48
2021/07/16 06:59:38;;;;;;;3.03;0.90;;;21.70;86.50;;;;;;4206423;28;20133;-51
2021/07/16 07:02:00;;;;;;;0.20;0.20;;;21.70;86.40;;;;;;4206888;28;20113;-46
2021/07/16 07:04:23;;;;;;;0.00;0.00;;;21.70;87.20;;;;;;4207035;28;20059;-49
2021/07/16 07:06:46;;;;;;;0.28;0.28;;;21.70;86.30;;;;;;4207870;28;20047;-49
2021/07/16 07:09:08;;;;;;;0.30;0.30;;;21.70;86.40;;;;;;4207458;28;20383;-51
2021/07/16 07:11:30;;;;;;;4.40;2.13;;;21.70;86.40;;;;;;4206044;28;20051;-47
2021/07/16 07:13:54;;;;;;;0.98;0.98;;;21.70;86.30;;;;;;4205902;28;20051;-52
2021/07/16 07:16:16;;;;;;;0.43;0.40;;;21.70;86.20;;;;;;4207489;28;20064;-52
2021/07/16 07:18:38;;;;;;;0.25;0.25;;;21.70;86.80;;;;;;4207630;28;20048;-51
2021/07/16 07:21:00;;;;;;;0.10;0.10;;;21.70;86.90;;;;;;4204959;28;20524;-50
2021/07/16 07:23:22;;;;;;;0.00;0.00;;;21.80;86.70;;;;;;4207162;28;20048;-50
2021/07/16 07:25:44;;;;;;;0.10;0.10;;;21.80;86.40;;;;;;4207103;28;20032;-49
2021/07/16 07:28:06;;;;;;;0.20;0.20;;;21.80;86.30;;;;;;4205994;28;20040;-49
2021/07/16 07:30:30;;;;;;;0.40;0.40;;;21.80;86.30;;;;;;4205502;28;20514;-51
2021/07/16 07:32:52;;;;;;;0.30;0.30;;;21.80;86.20;;;;;;4207592;28;20806;-53
2021/07/16 07:35:15;;;;;;;0.60;0.60;;;21.80;86.10;;;;;;4190577;28;20056;-53
2021/07/16 07:37:38;;;;;;;0.17;0.17;;;21.80;86.10;;;;;;4190748;28;20049;-51
2021/07/16 07:40:00;;;;;;;0.88;0.88;;;21.70;86.00;;;;;;4189503;28;20048;-53
2021/07/16 07:42:25;;;;;;;0.10;0.10;;;21.80;86.00;;;;;;4190732;28;20071;-52
2021/07/16 07:44:47;;;;;;;0.03;0.03;;;21.80;86.00;;;;;;4190483;28;20127;-50
2021/07/16 07:47:11;;;;;;;0.10;0.10;;;21.80;86.00;;;;;;4190635;28;20556;-52
2021/07/16 07:49:33;;;;;;;0.00;0.00;;;21.80;86.00;;;;;;4190926;28;20049;-48
2021/07/16 07:51:55;;;;;;;0.30;0.30;;;21.80;85.90;;;;;;4193055;28;20041;-50
2021/07/16 07:54:18;;;;;;;0.00;0.00;;;21.80;85.80;;;;;;4207311;28;20048;-51
2021/07/16 07:56:40;;;;;;;0.60;0.52;;;21.80;86.70;;;;;;4210172;28;20044;-54
2021/07/16 07:59:03;;;;;;;0.80;0.80;;;21.80;85.70;;;;;;4209078;27;20056;-51
2021/07/16 08:01:25;;;;;;;0.00;0.00;;;21.80;85.70;;;;;;4210447;28;20122;-53
2021/07/16 08:03:49;;;;;;;0.38;0.38;;;21.80;85.70;;;;;;4210142;28;20193;-51
2021/07/16 08:06:11;;;;;;;0.85;0.85;;;21.80;85.70;;;;;;4209802;28;20426;-53
2021/07/16 08:08:33;;;;;;;0.22;0.22;;;21.80;85.60;;;;;;4210252;28;20490;-50
2021/07/16 08:10:55;;;;;;;0.00;0.00;;;21.80;85.60;;;;;;4208371;28;20054;-51
2021/07/16 08:13:17;;;;;;;0.00;0.00;;;21.80;85.60;;;;;;4208710;28;20101;-52
2021/07/16 08:15:39;;;;;;;0.03;0.03;;;21.80;85.50;;;;;;4209976;28;20052;-52
2021/07/16 08:18:02;;;;;;;0.10;0.10;;;21.80;85.50;;;;;;4210251;28;20052;-48
2021/07/16 08:20:25;;;;;;;0.03;0.03;;;21.80;85.50;;;;;;4209773;28;20051;-50
2021/07/16 08:22:47;;;;;;;0.52;0.45;;;21.80;85.40;;;;;;4209954;28;20067;-51
2021/07/16 08:25:10;;;;;;;0.13;0.13;;;21.80;85.40;;;;;;4210217;28;20071;-52
2021/07/16 08:27:33;;;;;;;9.65;0.98;;;21.90;85.40;;;;;;4209583;28;20048;-50
2021/07/16 08:29:55;;;;;;;0.10;0.10;;;21.80;85.40;;;;;;4209593;28;20406;-51
2021/07/16 08:32:17;;;;;;;0.10;0.10;;;21.80;85.40;;;;;;4193125;28;20064;-49
2021/07/16 08:34:39;;;;;;;1.00;0.57;;;21.90;85.40;;;;;;4193135;28;20427;-50
2021/07/16 08:37:03;;;;;;;0.45;0.45;;;21.80;85.30;;;;;;4191680;28;20111;-50
2021/07/16 08:39:25;;;;;;;1.55;1.52;;;21.90;85.30;;;;;;4192545;28;20040;-51
2021/07/16 08:41:47;;;;;;;0.47;0.47;;;21.90;85.20;;;;;;4193036;28;20098;-52
2021/07/16 08:44:10;;;;;;;0.00;0.00;;;21.90;85.20;;;;;;4192875;28;20463;-49
2021/07/16 08:46:32;;;;;;;0.10;0.10;;;21.90;85.20;;;;;;4193062;28;20059;-50
2021/07/16 08:48:54;;;;;;;0.00;0.00;;;21.90;85.20;;;;;;4192497;28;20048;-47
2021/07/16 08:51:19;;;;;;;0.52;0.52;;;21.90;85.10;;;;;;4192581;28;20056;-50
2021/07/16 08:53:42;;;;;;;0.70;0.70;;;21.90;85.10;;;;;;4192542;28;21112;-51
2021/07/16 08:56:05;;;;;;;0.93;0.93;;;21.90;85.10;;;;;;4192522;28;20049;-49
2021/07/16 08:58:27;;;;;;;7.80;1.40;;;21.90;85.20;;;;;;4192916;28;20056;-51
2021/07/16 09:00:50;;;;;;;0.10;0.10;;;21.90;85.10;;;;;;4192465;28;20051;-48
2021/07/16 09:03:13;;;;;;;0.47;0.47;;;21.90;85.10;;;;;;4192388;28;20059;-52
2021/07/16 09:05:38;;;;;;;0.00;0.00;;;21.90;85.10;;;;;;4192606;28;20060;-53
2021/07/16 09:08:01;;;;;;;0.00;0.00;;;21.90;85.10;;;;;;4191672;28;20068;-52
2021/07/16 09:10:24;;;;;;;0.30;0.30;;;21.90;85.90;;;;;;4192221;28;20048;-52
2021/07/16 09:12:47;;;;;;;0.00;0.00;;;21.90;85.00;;;;;;4192276;28;20076;-51
2021/07/16 09:15:11;;;;;;;1.33;1.00;;;21.90;85.00;;;;;;4192546;28;20056;-50
2021/07/16 09:17:36;;;;;;;0.00;0.00;;;21.90;85.00;;;;;;4207991;27;20135;-53
2021/07/16 09:19:58;;;;;;;0.00;0.00;;;21.90;84.90;;;;;;4208899;28;20071;-50
2021/07/16 09:22:22;;;;;;;0.00;0.00;;;21.90;84.90;;;;;;4209323;28;20074;-53
2021/07/16 09:24:51;;;;;;;0.00;0.00;;;21.90;84.90;;;;;;4208849;28;20501;-52
2021/07/16 09:27:36;;;;;;;0.00;0.00;;;21.90;84.80;;;;;;4208388;28;20048;-49
2021/07/16 09:30:20;;;;;;;0.00;0.00;;;21.90;85.60;;;;;;4208417;28;20125;-49
2021/07/16 09:32:44;;;;;;;1.65;0.52;;;21.90;84.70;;;;;;4208559;28;20047;-50
2021/07/16 09:35:08;;;;;;;0.00;0.00;;;21.90;84.70;;;;;;4209007;28;20486;-49
2021/07/16 09:37:30;;;;;;;0.00;0.00;;;21.90;84.60;;;;;;4208647;28;20048;-52
2021/07/16 09:39:54;;;;;;;0.25;0.25;;;22.00;84.70;;;;;;4208627;28;20052;-52
2021/07/16 09:42:17;;;;;;;0.08;0.08;;;22.00;84.70;;;;;;4208767;28;20048;-49
2021/07/16 09:44:41;;;;;;;0.75;0.70;;;22.00;84.70;;;;;;4208810;28;20412;-52
2021/07/16 09:47:09;;;;;;;0.00;0.00;;;21.90;84.40;;;;;;4208258;28;20054;-53
2021/07/16 09:49:31;;;;;;;0.98;0.93;;;22.00;84.50;;;;;;4191499;28;20092;-56
2021/07/16 09:52:06;;;;;;;0.55;0.45;;;22.00;84.50;;;;;;4207831;27;20056;-54
2021/07/16 09:54:28;;;;;;;0.43;0.43;;;22.00;84.60;;;;;;4207348;28;20048;-53
2021/07/16 09:56:51;;;;;;;0.00;0.00;;;22.00;84.50;;;;;;4207428;28;20048;-53
2021/07/16 09:59:14;;;;;;;0.00;0.00;;;22.00;84.50;;;;;;4208332;28;20792;-54
2021/07/16 10:01:39;;;;;;;0.00;0.00;;;22.00;84.50;;;;;;4208279;28;20135;-53
2021/07/16 10:04:03;;;;;;;0.15;0.15;;;22.00;84.50;;;;;;4208399;28;20052;-51
2021/07/16 10:06:27;;;;;;;0.00;0.00;;;22.00;84.50;;;;;;4208165;28;20502;-54
2021/07/16 10:08:50;;;;;;;5.57;0.93;;;22.00;84.50;;;;;;4207910;28;20051;-49
2021/07/16 10:11:19;;;;;;;0.73;0.73;;;22.00;84.50;;;;;;4208426;28;20059;-53
2021/07/16 10:13:42;;;;;;;0.00;0.00;;;22.00;84.40;;;;;;4208179;28;20578;-52
2021/07/16 10:16:06;;;;;;;0.10;0.10;;;22.00;84.40;;;;;;4208321;28;20386;-51
2021/07/16 10:18:29;;;;;;;0.30;0.30;;;22.00;84.30;;;;;;4207479;28;20052;-53
2021/07/16 10:20:52;;;;;;;0.20;0.20;;;22.10;84.40;;;;;;4207704;28;20139;-52
2021/07/16 10:23:14;;;;;;;0.00;0.00;;;22.10;84.30;;;;;;4208259;28;20056;-48
2021/07/16 10:25:38;;;;;;;1.38;1.38;;;22.10;84.30;;;;;;4208177;28;20081;-53
2021/07/16 10:28:00;;;;;;;0.00;0.00;;;22.10;84.30;;;;;;4207488;28;20073;-51
2021/07/16 10:30:25;;;;;;;0.15;0.15;;;22.10;84.30;;;;;;4208117;28;20055;-52
2021/07/16 10:32:49;;;;;;;0.00;0.00;;;22.10;84.20;;;;;;4207589;28;20459;-54
2021/07/16 10:35:18;;;;;;;0.13;0.13;;;22.10;84.20;;;;;;4207699;28;20105;-53
2021/07/16 10:37:40;;;;;;;0.22;0.22;;;22.10;84.20;;;;;;4207504;28;20051;-53
2021/07/16 10:40:02;;;;;;;0.00;0.00;;;22.10;84.10;;;;;;4180736;28;20106;-47
2021/07/16 10:42:46;;;;;;;0.00;0.00;;;22.10;84.10;;;;;;4207510;28;20514;-50
2021/07/16 10:45:09;;;;;;;0.95;0.88;;;22.10;84.20;;;;;;4207830;28;20131;-51
2021/07/16 10:47:35;;;;;;;2.28;1.35;;;22.20;84.50;;;;;;4192850;27;20064;-48
2021/07/16 10:49:58;;;;;;;0.00;0.00;;;22.20;84.30;;;;;;4207518;28;20139;-49
2021/07/16 10:52:42;;;;;;;0.63;0.32;;;22.20;84.10;;;;;;4191189;28;20417;-48
2021/07/16 10:55:05;;;;;;;0.28;0.28;;;22.30;83.90;;;;;;4191729;28;20079;-53
2021/07/16 10:57:40;;;;;;;0.00;0.00;;;22.30;83.70;;;;;;4206238;28;20456;-48
2021/07/16 11:00:02;;;;;;;2.20;1.50;;;22.30;83.60;;;;;;4207333;28;20044;-47
2021/07/16 11:02:43;;;;;;;0.05;0.05;;;22.30;83.50;;;;;;4190810;28;20048;-48
2021/07/16 11:05:51;;;;;;;0.00;0.00;;;22.30;83.40;;;;;;4190898;28;20072;-47
2021/07/16 11:08:44;;;;;;;0.00;0.00;;;22.30;83.30;;;;;;4205716;28;20048;-48
2021/07/16 11:11:08;;;;;;;0.77;0.28;;;22.30;83.10;;;;;;4207368;28;20526;-52
2021/07/16 11:13:35;;;;;;;0.10;0.10;;;22.40;83.10;;;;;;4207749;28;20079;-53
2021/07/16 11:15:57;;;;;;;0.03;0.03;;;22.40;83.10;;;;;;4207300;28;20198;-49
2021/07/16 11:18:27;;;;;;;0.70;0.70;;;22.40;82.90;;;;;;4207209;28;20494;-49
2021/07/16 11:20:49;;;;;;;0.00;0.00;;;22.40;82.80;;;;;;4206931;28;20095;-49
2021/07/16 11:23:11;;;;;;;0.30;0.30;;;22.40;82.70;;;;;;4205934;28;20056;-48
2021/07/16 11:25:35;;;;;;;0.13;0.13;;;22.40;82.70;;;;;;4190457;28;20514;-50
2021/07/16 11:27:57;;;;;;;0.52;0.52;;;22.40;82.80;;;;;;4190621;28;20096;-52
2021/07/16 11:30:19;;;;;;;0.77;0.77;;;22.40;82.80;;;;;;4191038;28;20048;-49
2021/07/16 11:32:41;;;;;;;2.65;1.38;;;22.50;82.70;;;;;;4187069;28;20036;-48
2021/07/16 11:35:07;;;;;;;0.28;0.28;;;22.50;82.70;;;;;;4192636;28;20102;-50
2021/07/16 11:37:32;;;;;;;0.20;0.20;;;22.50;82.70;;;;;;4193115;28;20491;-48
2021/07/16 11:40:00;;;;;;;0.25;0.25;;;22.40;83.10;;;;;;4178020;28;20822;-48
2021/07/16 11:42:23;;;;;;;0.00;0.00;;;22.50;83.10;;;;;;4210075;28;20052;-53
2021/07/16 11:44:48;;;;;;;0.00;0.00;;;22.50;83.00;;;;;;4210105;28;20036;-52
2021/07/16 11:47:17;;;;;;;0.00;0.00;;;22.50;82.90;;;;;;4210228;28;21551;-54
2021/07/16 11:49:43;;;;;;;0.00;0.00;;;22.50;82.90;;;;;;4210109;28;20071;-51
2021/07/16 11:52:06;;;;;;;0.30;0.30;;;22.50;82.80;;;;;;4194039;28;20049;-48
2021/07/16 11:54:29;;;;;;;0.75;0.75;;;22.50;82.70;;;;;;4204515;28;20051;-53
2021/07/16 11:56:55;;;;;;;5.15;0.55;;;22.50;82.60;;;;;;4193455;28;20029;-52
2021/07/16 11:59:23;;;;;;;0.00;0.00;;;22.50;82.50;;;;;;4193528;28;20049;-51
2021/07/16 12:02:04;;;;;;;1.25;0.40;;;22.50;82.50;;;;;;4209048;28;20460;-49
2021/07/16 12:04:29;;;;;;;0.00;0.00;;;22.60;83.40;;;;;;4209723;28;20151;-48
2021/07/16 12:06:53;;;;;;;0.10;0.10;;;22.60;82.40;;;;;;4209960;28;20505;-50
2021/07/16 12:09:32;;;;;;;0.50;0.50;;;22.60;82.30;;;;;;4209601;28;20071;-51
2021/07/16 12:12:01;;;;;;;0.20;0.20;;;22.60;82.10;;;;;;4201875;28;20281;-52
2021/07/16 12:14:24;;;;;;;1.10;1.00;;;22.60;82.00;;;;;;4209910;28;20490;-52
2021/07/16 12:16:47;;;;;;;0.73;0.73;;;22.70;81.90;;;;;;4209988;28;20063;-51
2021/07/16 12:19:10;;;;;;;0.10;0.10;;;22.70;81.80;;;;;;4209876;28;20084;-50
2021/07/16 12:21:35;;;;;;;0.00;0.00;;;22.70;81.60;;;;;;4209220;28;20143;-53
2021/07/16 12:23:57;;;;;;;0.00;0.00;;;22.70;81.60;;;;;;4209518;28;20131;-49
2021/07/16 12:26:21;;;;;;;0.28;0.20;;;22.70;81.50;;;;;;4209624;28;20151;-49
2021/07/16 12:28:43;;;;;;;1.20;1.10;;;22.80;81.50;;;;;;4208251;28;20062;-48